UAL1330 KEWR-KSEA
Flight info
| Callsign | UAL1330 |
|---|---|
| Flight time | N/A |
| Altitude | 32000 |
| Route | GAYEL Q818 DERLO HOCKE GRB KP06E HILGR MLP GLASR3 |
| Aircraft | A320/M-VGDW/C |
Departure
| Time | 2026-05-07 23:59 |
|---|---|
| Airport | Newark Liberty International Airport (KEWR) |
Arrival
| Time | N/A |
|---|---|
| Airport | Seattle–Tacoma International Airport (KSEA) |
| Time | Latitude | Longitude | Altitude | Speed | Heading |
|---|---|---|---|---|---|
| 2026-05-07 23:31 | 40.68303 | -74.18411 | 22 ft | 0 kts | 5° |
| 2026-05-07 23:35 | 40.68302 | -74.18411 | 22 ft | 0 kts | 5° |
| 2026-05-07 23:48 | 40.68298 | -74.18411 | 22 ft | 3 kts | 5° |
| 2026-05-07 23:48 | 40.68271 | -74.18415 | 22 ft | 4 kts | 5° |
| 2026-05-07 23:49 | 40.68248 | -74.18419 | 22 ft | 4 kts | 60° |
| 2026-05-07 23:49 | 40.68246 | -74.18442 | 22 ft | 4 kts | 95° |
| 2026-05-07 23:49 | 40.68248 | -74.18467 | 22 ft | 0 kts | 95° |
| 2026-05-07 23:52 | 40.68247 | -74.18456 | 22 ft | 4 kts | 95° |
| 2026-05-07 23:52 | 40.68244 | -74.18407 | 22 ft | 4 kts | 95° |
| 2026-05-07 23:52 | 40.68242 | -74.18375 | 22 ft | 3 kts | 95° |
| 2026-05-07 23:53 | 40.68239 | -74.18341 | 22 ft | 4 kts | 95° |
| 2026-05-07 23:53 | 40.68237 | -74.18301 | 22 ft | 5 kts | 95° |
| 2026-05-07 23:53 | 40.68234 | -74.18253 | 22 ft | 6 kts | 94° |
| 2026-05-07 23:53 | 40.68232 | -74.18219 | 22 ft | 0 kts | 94° |
| 2026-05-07 23:54 | 40.68232 | -74.18218 | 22 ft | 1 kts | 93° |
| 2026-05-07 23:54 | 40.68234 | -74.18168 | 22 ft | 8 kts | 82° |
| 2026-05-07 23:54 | 40.68237 | -74.18092 | 22 ft | 9 kts | 95° |
| 2026-05-07 23:55 | 40.68232 | -74.18009 | 22 ft | 9 kts | 94° |
| 2026-05-07 23:55 | 40.68210 | -74.17927 | 23 ft | 10 kts | 116° |
| 2026-05-07 23:55 | 40.68178 | -74.17840 | 22 ft | 11 kts | 116° |
| 2026-05-07 23:55 | 40.68141 | -74.17754 | 22 ft | 9 kts | 132° |
| 2026-05-07 23:56 | 40.68095 | -74.17753 | 22 ft | 7 kts | 204° |
| 2026-05-07 23:56 | 40.68045 | -74.17784 | 22 ft | 9 kts | 206° |
| 2026-05-07 23:56 | 40.67976 | -74.17828 | 23 ft | 13 kts | 206° |
| 2026-05-07 23:56 | 40.67882 | -74.17888 | 22 ft | 17 kts | 206° |
| 2026-05-07 23:57 | 40.67770 | -74.17959 | 22 ft | 18 kts | 206° |
| 2026-05-07 23:57 | 40.67675 | -74.18021 | 23 ft | 14 kts | 206° |
| 2026-05-07 23:57 | 40.67619 | -74.18044 | 22 ft | 6 kts | 175° |
| 2026-05-07 23:57 | 40.67578 | -74.18010 | 22 ft | 9 kts | 130° |
| 2026-05-07 23:58 | 40.67586 | -74.17918 | 25 ft | 13 kts | 41° |
| 2026-05-07 23:58 | 40.67749 | -74.17813 | 21 ft | 55 kts | 25° |
| 2026-05-07 23:58 | 40.68292 | -74.17467 | 25 ft | 115 kts | 26° |
| 2026-05-07 23:58 | 40.69165 | -74.16914 | 24 ft | 163 kts | 26° |
| 2026-05-07 23:59 | 40.70221 | -74.16200 | 491 ft | 168 kts | 26° |
| 2026-05-07 23:59 | 40.71161 | -74.15270 | 1162 ft | 170 kts | 40° |
| 2026-05-07 23:59 | 40.71998 | -74.14167 | 1765 ft | 172 kts | 42° |
| 2026-05-07 23:59 | 40.72883 | -74.12970 | 1922 ft | 193 kts | 42° |
| 2026-05-08 00:00 | 40.73873 | -74.11642 | 2108 ft | 212 kts | 42° |
| 2026-05-08 00:00 | 40.75077 | -74.10402 | 2293 ft | 231 kts | 19° |
| 2026-05-08 00:00 | 40.76688 | -74.10136 | 2647 ft | 239 kts | 346° |
| 2026-05-08 00:00 | 40.78170 | -74.11067 | 3303 ft | 240 kts | 316° |
| 2026-05-08 00:01 | 40.79078 | -74.12894 | 3982 ft | 242 kts | 287° |
| 2026-05-08 00:01 | 40.79238 | -74.15105 | 4674 ft | 246 kts | 270° |
| 2026-05-08 00:01 | 40.79142 | -74.17433 | 4955 ft | 260 kts | 268° |
| 2026-05-08 00:01 | 40.79002 | -74.19822 | 5020 ft | 262 kts | 268° |
| 2026-05-08 00:02 | 40.78853 | -74.22214 | 5027 ft | 262 kts | 268° |
| 2026-05-08 00:02 | 40.78707 | -74.24609 | 5027 ft | 261 kts | 270° |
| 2026-05-08 00:02 | 40.79004 | -74.26929 | 5074 ft | 258 kts | 298° |
| 2026-05-08 00:02 | 40.80108 | -74.28782 | 5723 ft | 259 kts | 315° |
| 2026-05-08 00:03 | 40.81413 | -74.30422 | 6469 ft | 260 kts | 317° |
| 2026-05-08 00:03 | 40.82744 | -74.32041 | 7162 ft | 261 kts | 317° |
| 2026-05-08 00:03 | 40.84093 | -74.33665 | 7826 ft | 264 kts | 317° |
| 2026-05-08 00:03 | 40.85459 | -74.35297 | 8460 ft | 266 kts | 317° |
| 2026-05-08 00:04 | 40.86844 | -74.36944 | 9081 ft | 269 kts | 317° |
| 2026-05-08 00:04 | 40.88247 | -74.38601 | 9666 ft | 274 kts | 317° |
| 2026-05-08 00:04 | 40.89685 | -74.40255 | 10209 ft | 278 kts | 317° |
| 2026-05-08 00:04 | 40.91230 | -74.41946 | 10332 ft | 299 kts | 317° |
| 2026-05-08 00:05 | 40.92882 | -74.43666 | 10804 ft | 305 kts | 322° |
| 2026-05-08 00:05 | 40.94854 | -74.44818 | 11351 ft | 318 kts | 342° |
| 2026-05-08 00:05 | 40.97133 | -74.44926 | 11671 ft | 343 kts | 360° |
| 2026-05-08 00:05 | 40.99570 | -74.44499 | 11803 ft | 362 kts | 1° |
| 2026-05-08 00:06 | 41.02121 | -74.43968 | 11931 ft | 379 kts | 3° |
| 2026-05-08 00:06 | 41.04776 | -74.43378 | 12056 ft | 394 kts | 3° |
| 2026-05-08 00:06 | 41.07517 | -74.42754 | 12349 ft | 403 kts | 3° |
| 2026-05-08 00:06 | 41.10294 | -74.42127 | 12768 ft | 407 kts | 3° |
| 2026-05-08 00:07 | 41.13101 | -74.41513 | 13236 ft | 410 kts | 2° |
| 2026-05-08 00:07 | 41.15936 | -74.40906 | 13699 ft | 414 kts | 2° |
| 2026-05-08 00:07 | 41.18799 | -74.40302 | 14135 ft | 419 kts | 2° |
| 2026-05-08 00:07 | 41.21688 | -74.39699 | 14600 ft | 422 kts | 2° |
| 2026-05-08 00:08 | 41.24602 | -74.39097 | 15016 ft | 425 kts | 2° |
| 2026-05-08 00:08 | 41.27541 | -74.38489 | 15426 ft | 429 kts | 2° |
| 2026-05-08 00:08 | 41.30498 | -74.37876 | 15797 ft | 433 kts | 2° |
| 2026-05-08 00:08 | 41.33485 | -74.37514 | 16190 ft | 428 kts | 351° |
| 2026-05-08 00:09 | 41.36412 | -74.37957 | 16588 ft | 419 kts | 339° |
| 2026-05-08 00:09 | 41.39141 | -74.39176 | 16990 ft | 410 kts | 326° |
| 2026-05-08 00:09 | 41.41577 | -74.41062 | 17355 ft | 402 kts | 315° |
| 2026-05-08 00:09 | 41.43652 | -74.43509 | 17653 ft | 396 kts | 304° |
| 2026-05-08 00:10 | 41.45304 | -74.46416 | 18035 ft | 390 kts | 293° |
| 2026-05-08 00:10 | 41.46656 | -74.49536 | 18424 ft | 390 kts | 292° |
| 2026-05-08 00:10 | 41.48009 | -74.52672 | 18839 ft | 392 kts | 292° |
| 2026-05-08 00:10 | 41.49371 | -74.55828 | 19237 ft | 393 kts | 292° |
| 2026-05-08 00:11 | 41.50736 | -74.58996 | 19613 ft | 395 kts | 292° |
| 2026-05-08 00:11 | 41.52114 | -74.62179 | 19982 ft | 397 kts | 292° |
| 2026-05-08 00:11 | 41.53497 | -74.65380 | 20349 ft | 399 kts | 292° |
| 2026-05-08 00:11 | 41.54878 | -74.68588 | 20681 ft | 400 kts | 292° |
| 2026-05-08 00:12 | 41.56266 | -74.71826 | 21001 ft | 402 kts | 292° |
| 2026-05-08 00:12 | 41.57653 | -74.75069 | 21326 ft | 403 kts | 292° |
| 2026-05-08 00:12 | 41.59050 | -74.78326 | 21638 ft | 405 kts | 292° |
| 2026-05-08 00:12 | 41.60455 | -74.81591 | 21925 ft | 406 kts | 292° |
| 2026-05-08 00:13 | 41.61849 | -74.84826 | 22195 ft | 407 kts | 292° |
| 2026-05-08 00:13 | 41.63257 | -74.88113 | 22485 ft | 408 kts | 292° |
| 2026-05-08 00:13 | 41.64684 | -74.91460 | 22750 ft | 409 kts | 291° |
| 2026-05-08 00:13 | 41.66091 | -74.94767 | 23110 ft | 409 kts | 291° |
| 2026-05-08 00:14 | 41.67494 | -74.98061 | 23513 ft | 407 kts | 291° |
| 2026-05-08 00:14 | 41.68891 | -75.01339 | 23927 ft | 405 kts | 291° |
| 2026-05-08 00:14 | 41.70282 | -75.04602 | 24308 ft | 403 kts | 291° |
| 2026-05-08 00:14 | 41.71650 | -75.07815 | 24708 ft | 402 kts | 291° |
| 2026-05-08 00:15 | 41.73027 | -75.11058 | 25111 ft | 400 kts | 291° |
| 2026-05-08 00:15 | 41.74391 | -75.14283 | 25551 ft | 397 kts | 291° |
| 2026-05-08 00:15 | 41.75747 | -75.17490 | 25968 ft | 395 kts | 291° |
| 2026-05-08 00:15 | 41.77097 | -75.20678 | 26394 ft | 392 kts | 291° |
| 2026-05-08 00:16 | 41.78439 | -75.23845 | 26826 ft | 389 kts | 291° |
| 2026-05-08 00:16 | 41.79782 | -75.27027 | 27285 ft | 386 kts | 290° |
| 2026-05-08 00:16 | 41.81078 | -75.30108 | 27691 ft | 383 kts | 290° |
| 2026-05-08 00:16 | 41.82381 | -75.33214 | 28115 ft | 380 kts | 290° |
| 2026-05-08 00:17 | 41.83670 | -75.36292 | 28517 ft | 377 kts | 290° |
| 2026-05-08 00:17 | 41.84954 | -75.39352 | 28914 ft | 375 kts | 290° |
| 2026-05-08 00:17 | 41.86229 | -75.42387 | 29330 ft | 372 kts | 290° |
| 2026-05-08 00:17 | 41.87494 | -75.45403 | 29695 ft | 370 kts | 290° |
| 2026-05-08 00:18 | 41.88750 | -75.48402 | 30074 ft | 368 kts | 290° |
| 2026-05-08 00:18 | 41.89999 | -75.51387 | 30470 ft | 365 kts | 290° |
| 2026-05-08 00:18 | 41.91238 | -75.54350 | 30805 ft | 364 kts | 290° |
| 2026-05-08 00:18 | 41.92473 | -75.57316 | 31102 ft | 363 kts | 290° |
| 2026-05-08 00:19 | 41.93703 | -75.60275 | 31397 ft | 363 kts | 290° |
| 2026-05-08 00:19 | 41.94933 | -75.63231 | 31693 ft | 362 kts | 290° |
| 2026-05-08 00:19 | 41.95763 | -75.65225 | 31828 ft | 363 kts | 290° |
| 2026-05-08 00:19 | 41.97001 | -75.68205 | 31885 ft | 367 kts | 290° |
| 2026-05-08 00:20 | 41.99534 | -75.74310 | 31887 ft | 381 kts | 290° |
| 2026-05-08 00:20 | 42.02148 | -75.80619 | 31889 ft | 391 kts | 290° |
| 2026-05-08 00:21 | 42.04803 | -75.87047 | 31886 ft | 394 kts | 290° |
| 2026-05-08 00:21 | 42.07470 | -75.93492 | 31888 ft | 394 kts | 290° |
| 2026-05-08 00:22 | 42.10134 | -75.99939 | 31888 ft | 394 kts | 290° |
| 2026-05-08 00:22 | 42.12788 | -76.06402 | 31890 ft | 394 kts | 290° |
| 2026-05-08 00:23 | 42.15411 | -76.12819 | 31885 ft | 393 kts | 289° |
| 2026-05-08 00:23 | 42.17635 | -76.19507 | 31880 ft | 388 kts | 285° |
| 2026-05-08 00:24 | 42.19784 | -76.26194 | 31882 ft | 389 kts | 286° |
| 2026-05-08 00:24 | 42.21922 | -76.32851 | 31891 ft | 390 kts | 286° |
| 2026-05-08 00:25 | 42.24075 | -76.39579 | 31890 ft | 391 kts | 286° |
| 2026-05-08 00:25 | 42.26229 | -76.46331 | 31900 ft | 392 kts | 285° |
| 2026-05-08 00:26 | 42.28385 | -76.53105 | 31907 ft | 393 kts | 285° |
| 2026-05-08 00:26 | 42.30548 | -76.59933 | 31911 ft | 393 kts | 285° |
| 2026-05-08 00:27 | 42.32678 | -76.66676 | 31910 ft | 393 kts | 285° |
| 2026-05-08 00:27 | 42.34821 | -76.73471 | 31911 ft | 393 kts | 285° |
| 2026-05-08 00:28 | 42.36960 | -76.80270 | 31906 ft | 393 kts | 285° |
| 2026-05-08 00:28 | 42.39094 | -76.87077 | 31909 ft | 393 kts | 285° |
| 2026-05-08 00:29 | 42.41230 | -76.93891 | 31903 ft | 393 kts | 286° |
| 2026-05-08 00:29 | 42.43365 | -77.00701 | 31904 ft | 393 kts | 285° |
| 2026-05-08 00:30 | 42.45487 | -77.07524 | 31911 ft | 393 kts | 285° |
| 2026-05-08 00:30 | 42.47609 | -77.14355 | 31916 ft | 393 kts | 285° |
| 2026-05-08 00:31 | 42.49727 | -77.21189 | 31908 ft | 393 kts | 285° |
| 2026-05-08 00:31 | 42.51836 | -77.28016 | 31917 ft | 393 kts | 285° |
| 2026-05-08 00:32 | 42.53938 | -77.34844 | 31919 ft | 392 kts | 285° |
| 2026-05-08 00:32 | 42.56031 | -77.41659 | 31922 ft | 391 kts | 285° |
| 2026-05-08 00:33 | 42.58120 | -77.48465 | 31919 ft | 390 kts | 286° |
| 2026-05-08 00:33 | 42.60199 | -77.55262 | 31918 ft | 390 kts | 285° |
| 2026-05-08 00:34 | 42.62270 | -77.62070 | 31914 ft | 390 kts | 285° |
| 2026-05-08 00:34 | 42.64336 | -77.68872 | 31908 ft | 390 kts | 285° |
| 2026-05-08 00:35 | 42.66392 | -77.75681 | 31908 ft | 389 kts | 284° |
| 2026-05-08 00:35 | 42.68343 | -77.82522 | 31906 ft | 388 kts | 284° |
| 2026-05-08 00:36 | 42.70234 | -77.89391 | 31905 ft | 388 kts | 284° |
| 2026-05-08 00:36 | 42.72129 | -77.96259 | 31905 ft | 389 kts | 284° |
| 2026-05-08 00:37 | 42.74039 | -78.03147 | 31907 ft | 390 kts | 284° |
| 2026-05-08 00:38 | 42.76901 | -78.13484 | 31898 ft | 390 kts | 284° |
| 2026-05-08 00:38 | 42.78811 | -78.20392 | 31898 ft | 391 kts | 284° |
| 2026-05-08 00:39 | 42.80718 | -78.27338 | 31903 ft | 392 kts | 284° |
| 2026-05-08 00:39 | 42.82628 | -78.34301 | 31903 ft | 393 kts | 284° |
| 2026-05-08 00:40 | 42.84536 | -78.41277 | 31903 ft | 394 kts | 284° |
| 2026-05-08 00:40 | 42.86447 | -78.48278 | 31912 ft | 395 kts | 284° |
| 2026-05-08 00:41 | 42.88361 | -78.55307 | 31915 ft | 396 kts | 284° |
| 2026-05-08 00:41 | 42.90267 | -78.62348 | 31925 ft | 396 kts | 284° |
| 2026-05-08 00:42 | 42.92173 | -78.69406 | 31931 ft | 397 kts | 284° |
| 2026-05-08 00:42 | 42.93711 | -78.76533 | 31922 ft | 392 kts | 275° |
| 2026-05-08 00:43 | 42.94605 | -78.83869 | 31930 ft | 392 kts | 276° |
| 2026-05-08 00:43 | 42.95515 | -78.91269 | 31931 ft | 393 kts | 276° |
| 2026-05-08 00:44 | 42.96368 | -78.98649 | 31938 ft | 393 kts | 274° |
| 2026-05-08 00:44 | 42.96862 | -79.06075 | 31944 ft | 393 kts | 271° |
| 2026-05-08 00:45 | 42.97206 | -79.13519 | 31943 ft | 393 kts | 271° |
| 2026-05-08 00:45 | 42.97574 | -79.20970 | 31936 ft | 394 kts | 271° |
| 2026-05-08 00:46 | 42.97980 | -79.28417 | 31941 ft | 393 kts | 272° |
| 2026-05-08 00:46 | 42.98402 | -79.35865 | 31940 ft | 394 kts | 272° |
| 2026-05-08 00:47 | 42.98818 | -79.43325 | 31942 ft | 394 kts | 272° |
| 2026-05-08 00:47 | 42.99227 | -79.50789 | 31944 ft | 395 kts | 271° |
| 2026-05-08 00:48 | 42.99622 | -79.58267 | 31948 ft | 395 kts | 271° |
| 2026-05-08 00:48 | 43.00009 | -79.65751 | 31938 ft | 395 kts | 272° |
| 2026-05-08 00:49 | 43.00406 | -79.73227 | 31930 ft | 395 kts | 272° |
| 2026-05-08 00:49 | 43.00797 | -79.80715 | 31932 ft | 395 kts | 271° |
| 2026-05-08 00:50 | 43.01178 | -79.88162 | 31925 ft | 395 kts | 271° |
| 2026-05-08 00:50 | 43.01541 | -79.95653 | 31925 ft | 395 kts | 271° |
| 2026-05-08 00:51 | 43.01901 | -80.03140 | 31921 ft | 395 kts | 272° |
| 2026-05-08 00:51 | 43.02271 | -80.10645 | 31918 ft | 396 kts | 272° |
| 2026-05-08 00:52 | 43.02630 | -80.18165 | 31920 ft | 397 kts | 272° |
| 2026-05-08 00:52 | 43.02994 | -80.25714 | 31923 ft | 399 kts | 272° |
| 2026-05-08 00:53 | 43.03352 | -80.33282 | 31925 ft | 399 kts | 272° |
| 2026-05-08 00:53 | 43.03707 | -80.40866 | 31924 ft | 400 kts | 272° |
| 2026-05-08 00:54 | 43.04051 | -80.48460 | 31928 ft | 400 kts | 271° |
| 2026-05-08 00:54 | 43.04381 | -80.56057 | 31928 ft | 401 kts | 271° |
| 2026-05-08 00:55 | 43.04717 | -80.63660 | 31927 ft | 401 kts | 272° |
| 2026-05-08 00:55 | 43.05058 | -80.71270 | 31930 ft | 401 kts | 272° |
| 2026-05-08 00:56 | 43.05393 | -80.78887 | 31927 ft | 401 kts | 272° |
| 2026-05-08 00:56 | 43.05716 | -80.86505 | 31938 ft | 401 kts | 271° |
| 2026-05-08 00:57 | 43.06025 | -80.94139 | 31941 ft | 402 kts | 271° |
| 2026-05-08 00:57 | 43.06327 | -81.01764 | 31942 ft | 402 kts | 271° |
| 2026-05-08 00:58 | 43.06656 | -81.09399 | 31941 ft | 403 kts | 275° |
| 2026-05-08 00:58 | 43.07601 | -81.16981 | 31940 ft | 405 kts | 277° |
| 2026-05-08 00:59 | 43.08407 | -81.23282 | 31941 ft | 404 kts | 277° |
| 2026-05-08 00:59 | 43.09364 | -81.30863 | 31941 ft | 405 kts | 277° |
| 2026-05-08 01:00 | 43.10316 | -81.38466 | 31940 ft | 406 kts | 277° |
| 2026-05-08 01:00 | 43.11273 | -81.46090 | 31939 ft | 407 kts | 277° |
| 2026-05-08 01:01 | 43.12232 | -81.53728 | 31947 ft | 407 kts | 278° |
| 2026-05-08 01:01 | 43.13183 | -81.61374 | 31950 ft | 408 kts | 277° |
| 2026-05-08 01:02 | 43.14130 | -81.69039 | 31954 ft | 409 kts | 277° |
| 2026-05-08 01:02 | 43.15073 | -81.76728 | 31951 ft | 410 kts | 277° |
| 2026-05-08 01:03 | 43.16014 | -81.84425 | 31955 ft | 409 kts | 277° |
| 2026-05-08 01:03 | 43.16953 | -81.92123 | 31952 ft | 410 kts | 278° |
| 2026-05-08 01:04 | 43.17884 | -81.99843 | 31946 ft | 411 kts | 277° |
| 2026-05-08 01:04 | 43.18803 | -82.07567 | 31940 ft | 411 kts | 278° |
| 2026-05-08 01:05 | 43.19718 | -82.15309 | 31943 ft | 412 kts | 278° |
| 2026-05-08 01:05 | 43.20637 | -82.23059 | 31942 ft | 412 kts | 278° |
| 2026-05-08 01:06 | 43.21559 | -82.30835 | 31949 ft | 413 kts | 278° |
| 2026-05-08 01:06 | 43.22467 | -82.38599 | 31953 ft | 413 kts | 278° |
| 2026-05-08 01:07 | 43.23370 | -82.46366 | 31956 ft | 412 kts | 277° |
| 2026-05-08 01:07 | 43.24270 | -82.54143 | 31963 ft | 413 kts | 278° |
| 2026-05-08 01:08 | 43.25160 | -82.61911 | 31963 ft | 412 kts | 277° |
| 2026-05-08 01:08 | 43.26056 | -82.69679 | 31968 ft | 412 kts | 280° |
| 2026-05-08 01:09 | 43.27822 | -82.77173 | 31969 ft | 414 kts | 288° |
| 2026-05-08 01:09 | 43.29791 | -82.84606 | 31966 ft | 414 kts | 287° |
| 2026-05-08 01:10 | 43.31750 | -82.92037 | 31960 ft | 413 kts | 288° |
| 2026-05-08 01:10 | 43.33704 | -82.99471 | 31959 ft | 414 kts | 288° |
| 2026-05-08 01:11 | 43.35641 | -83.06909 | 31957 ft | 414 kts | 288° |
| 2026-05-08 01:11 | 43.37579 | -83.14353 | 31952 ft | 414 kts | 288° |
| 2026-05-08 01:12 | 43.39517 | -83.21791 | 31950 ft | 414 kts | 288° |
| 2026-05-08 01:12 | 43.41457 | -83.29241 | 31950 ft | 414 kts | 288° |
| 2026-05-08 01:13 | 43.43385 | -83.36710 | 31951 ft | 414 kts | 288° |
| 2026-05-08 01:13 | 43.45308 | -83.44196 | 31950 ft | 415 kts | 288° |
| 2026-05-08 01:14 | 43.47230 | -83.51685 | 31946 ft | 415 kts | 288° |
| 2026-05-08 01:14 | 43.49154 | -83.59179 | 31945 ft | 416 kts | 288° |
| 2026-05-08 01:15 | 43.51075 | -83.66687 | 31936 ft | 416 kts | 288° |
| 2026-05-08 01:15 | 43.52988 | -83.74211 | 31937 ft | 416 kts | 288° |
| 2026-05-08 01:16 | 43.54896 | -83.81745 | 31944 ft | 417 kts | 288° |
| 2026-05-08 01:16 | 43.56807 | -83.89299 | 31938 ft | 417 kts | 288° |
| 2026-05-08 01:17 | 43.58708 | -83.96864 | 31944 ft | 418 kts | 288° |
| 2026-05-08 01:17 | 43.60591 | -84.04377 | 31945 ft | 418 kts | 288° |
| 2026-05-08 01:18 | 43.62501 | -84.12018 | 31944 ft | 418 kts | 288° |
| 2026-05-08 01:18 | 43.64399 | -84.19617 | 31948 ft | 418 kts | 288° |
| 2026-05-08 01:19 | 43.66277 | -84.27166 | 31954 ft | 418 kts | 288° |
| 2026-05-08 01:19 | 43.68175 | -84.34810 | 31954 ft | 418 kts | 288° |
| 2026-05-08 01:20 | 43.70043 | -84.42356 | 31959 ft | 417 kts | 288° |
| 2026-05-08 01:20 | 43.71909 | -84.49948 | 31962 ft | 417 kts | 288° |
| 2026-05-08 01:21 | 43.73774 | -84.57539 | 31961 ft | 417 kts | 288° |
| 2026-05-08 01:21 | 43.75631 | -84.65134 | 31958 ft | 416 kts | 288° |
| 2026-05-08 01:22 | 43.77476 | -84.72716 | 31954 ft | 416 kts | 288° |
| 2026-05-08 01:22 | 43.79316 | -84.80299 | 31957 ft | 415 kts | 288° |
| 2026-05-08 01:23 | 43.81146 | -84.87869 | 31954 ft | 414 kts | 287° |
| 2026-05-08 01:23 | 43.82961 | -84.95426 | 31954 ft | 413 kts | 287° |
| 2026-05-08 01:24 | 43.84777 | -85.02974 | 31951 ft | 413 kts | 288° |
| 2026-05-08 01:24 | 43.86596 | -85.10518 | 31949 ft | 412 kts | 288° |
| 2026-05-08 01:25 | 43.88398 | -85.18055 | 31946 ft | 412 kts | 287° |
| 2026-05-08 01:25 | 43.90190 | -85.25602 | 31946 ft | 412 kts | 287° |
| 2026-05-08 01:26 | 43.91984 | -85.33154 | 31942 ft | 412 kts | 288° |
| 2026-05-08 01:26 | 43.93771 | -85.40709 | 31942 ft | 412 kts | 287° |
| 2026-05-08 01:27 | 43.95558 | -85.48292 | 31930 ft | 413 kts | 287° |
| 2026-05-08 01:27 | 43.97342 | -85.55872 | 31945 ft | 413 kts | 288° |
| 2026-05-08 01:28 | 43.99123 | -85.63469 | 31943 ft | 414 kts | 287° |
| 2026-05-08 01:28 | 44.00891 | -85.71082 | 31940 ft | 414 kts | 287° |
| 2026-05-08 01:29 | 44.02663 | -85.78715 | 31939 ft | 415 kts | 287° |
| 2026-05-08 01:29 | 44.04438 | -85.86359 | 31938 ft | 415 kts | 287° |
| 2026-05-08 01:30 | 44.06201 | -85.93994 | 31945 ft | 415 kts | 287° |
| 2026-05-08 01:30 | 44.07959 | -86.01646 | 31945 ft | 415 kts | 287° |
| 2026-05-08 01:31 | 44.09698 | -86.09240 | 31942 ft | 415 kts | 287° |
| 2026-05-08 01:31 | 44.11450 | -86.16889 | 31945 ft | 415 kts | 287° |
| 2026-05-08 01:32 | 44.13200 | -86.24551 | 31949 ft | 415 kts | 287° |
| 2026-05-08 01:32 | 44.14935 | -86.32213 | 31945 ft | 415 kts | 287° |
| 2026-05-08 01:33 | 44.16668 | -86.39884 | 31944 ft | 415 kts | 287° |
| 2026-05-08 01:33 | 44.18391 | -86.47558 | 31933 ft | 415 kts | 287° |
| 2026-05-08 01:34 | 44.20109 | -86.55245 | 31944 ft | 416 kts | 287° |
| 2026-05-08 01:34 | 44.21832 | -86.62941 | 31943 ft | 416 kts | 287° |
| 2026-05-08 01:35 | 44.23558 | -86.70648 | 31944 ft | 416 kts | 287° |
| 2026-05-08 01:35 | 44.25270 | -86.78364 | 31944 ft | 416 kts | 287° |
| 2026-05-08 01:36 | 44.26972 | -86.86093 | 31947 ft | 416 kts | 287° |
| 2026-05-08 01:36 | 44.28678 | -86.93811 | 31946 ft | 416 kts | 287° |
| 2026-05-08 01:37 | 44.30379 | -87.01533 | 31945 ft | 416 kts | 287° |
| 2026-05-08 01:37 | 44.32070 | -87.09259 | 31946 ft | 416 kts | 287° |
| 2026-05-08 01:38 | 44.33756 | -87.16983 | 31946 ft | 416 kts | 287° |
| 2026-05-08 01:38 | 44.35431 | -87.24713 | 31945 ft | 416 kts | 287° |
| 2026-05-08 01:39 | 44.36820 | -87.31141 | 31943 ft | 415 kts | 287° |
| 2026-05-08 01:39 | 44.38493 | -87.38872 | 31928 ft | 416 kts | 287° |
| 2026-05-08 01:40 | 44.40158 | -87.46599 | 31946 ft | 415 kts | 286° |
| 2026-05-08 01:40 | 44.41814 | -87.54333 | 31944 ft | 415 kts | 287° |
| 2026-05-08 01:41 | 44.43460 | -87.62061 | 31930 ft | 414 kts | 286° |
| 2026-05-08 01:41 | 44.45099 | -87.69781 | 31939 ft | 414 kts | 286° |
| 2026-05-08 01:42 | 44.46728 | -87.77497 | 31938 ft | 413 kts | 286° |
| 2026-05-08 01:42 | 44.48354 | -87.85214 | 31938 ft | 413 kts | 286° |
| 2026-05-08 01:43 | 44.49979 | -87.92934 | 31933 ft | 413 kts | 286° |
| 2026-05-08 01:43 | 44.51602 | -88.00655 | 31929 ft | 413 kts | 286° |
| 2026-05-08 01:44 | 44.53207 | -88.08322 | 31926 ft | 412 kts | 286° |
| 2026-05-08 01:44 | 44.54812 | -88.16042 | 31930 ft | 412 kts | 286° |
| 2026-05-08 01:45 | 44.56444 | -88.23744 | 31925 ft | 412 kts | 287° |
| 2026-05-08 01:45 | 44.58164 | -88.31408 | 31917 ft | 412 kts | 287° |
| 2026-05-08 01:46 | 44.59896 | -88.39081 | 31919 ft | 412 kts | 287° |
| 2026-05-08 01:46 | 44.61604 | -88.46751 | 31922 ft | 412 kts | 287° |
| 2026-05-08 01:47 | 44.63300 | -88.54435 | 31921 ft | 412 kts | 287° |
| 2026-05-08 01:47 | 44.64997 | -88.62124 | 31914 ft | 412 kts | 287° |
| 2026-05-08 01:48 | 44.67534 | -88.73667 | 31923 ft | 412 kts | 287° |
| 2026-05-08 01:48 | 44.69215 | -88.81373 | 31927 ft | 412 kts | 287° |
| 2026-05-08 01:49 | 44.70894 | -88.89076 | 31930 ft | 412 kts | 287° |
| 2026-05-08 01:49 | 44.72570 | -88.96783 | 31933 ft | 412 kts | 287° |
| 2026-05-08 01:50 | 44.74239 | -89.04492 | 31926 ft | 412 kts | 287° |
| 2026-05-08 01:50 | 44.75898 | -89.12200 | 31923 ft | 412 kts | 287° |
| 2026-05-08 01:51 | 44.77549 | -89.19919 | 31920 ft | 412 kts | 287° |
| 2026-05-08 01:51 | 44.79202 | -89.27644 | 31930 ft | 412 kts | 287° |
| 2026-05-08 01:52 | 44.80843 | -89.35362 | 31923 ft | 412 kts | 287° |
| 2026-05-08 01:52 | 44.82485 | -89.43086 | 31920 ft | 412 kts | 287° |
| 2026-05-08 01:53 | 44.84120 | -89.50818 | 31917 ft | 411 kts | 287° |
| 2026-05-08 01:53 | 44.85744 | -89.58547 | 31910 ft | 411 kts | 287° |
| 2026-05-08 01:54 | 44.87358 | -89.66265 | 31906 ft | 411 kts | 287° |
| 2026-05-08 01:54 | 44.88974 | -89.73992 | 31907 ft | 411 kts | 287° |
| 2026-05-08 01:55 | 44.90586 | -89.81718 | 31903 ft | 411 kts | 287° |
| 2026-05-08 01:55 | 44.92192 | -89.89454 | 31906 ft | 411 kts | 287° |
| 2026-05-08 01:56 | 44.93777 | -89.97138 | 31903 ft | 411 kts | 287° |
| 2026-05-08 01:56 | 44.95368 | -90.04877 | 31909 ft | 410 kts | 288° |
| 2026-05-08 01:57 | 44.96955 | -90.12596 | 31915 ft | 409 kts | 288° |
| 2026-05-08 01:57 | 44.98527 | -90.20295 | 31914 ft | 408 kts | 288° |
| 2026-05-08 01:58 | 45.00094 | -90.27989 | 31916 ft | 407 kts | 288° |
| 2026-05-08 01:58 | 45.01652 | -90.35687 | 31910 ft | 407 kts | 288° |
| 2026-05-08 01:59 | 45.03203 | -90.43391 | 31909 ft | 407 kts | 288° |
| 2026-05-08 01:59 | 45.04747 | -90.51088 | 31906 ft | 407 kts | 288° |
| 2026-05-08 02:00 | 45.06296 | -90.58794 | 31909 ft | 407 kts | 288° |
| 2026-05-08 02:00 | 45.07840 | -90.66482 | 31909 ft | 406 kts | 288° |
| 2026-05-08 02:01 | 45.09367 | -90.74179 | 31910 ft | 406 kts | 288° |
| 2026-05-08 02:01 | 45.10884 | -90.81882 | 31906 ft | 406 kts | 288° |
| 2026-05-08 02:02 | 45.12404 | -90.89578 | 31906 ft | 406 kts | 288° |
| 2026-05-08 02:02 | 45.13923 | -90.97282 | 31905 ft | 406 kts | 288° |
| 2026-05-08 02:03 | 45.15433 | -91.04975 | 31903 ft | 405 kts | 288° |
| 2026-05-08 02:03 | 45.16929 | -91.12671 | 31906 ft | 405 kts | 288° |
| 2026-05-08 02:04 | 45.18425 | -91.20380 | 31911 ft | 405 kts | 288° |
| 2026-05-08 02:04 | 45.19915 | -91.28088 | 31909 ft | 405 kts | 288° |
| 2026-05-08 02:05 | 45.21401 | -91.35800 | 31909 ft | 406 kts | 288° |
| 2026-05-08 02:05 | 45.22884 | -91.43522 | 31907 ft | 405 kts | 288° |
| 2026-05-08 02:06 | 45.24350 | -91.51192 | 31902 ft | 405 kts | 288° |
| 2026-05-08 02:06 | 45.25814 | -91.58915 | 31902 ft | 405 kts | 288° |
| 2026-05-08 02:07 | 45.27282 | -91.66689 | 31895 ft | 406 kts | 288° |
| 2026-05-08 02:07 | 45.28746 | -91.74424 | 31896 ft | 405 kts | 288° |
| 2026-05-08 02:08 | 45.30207 | -91.82161 | 31894 ft | 406 kts | 288° |
| 2026-05-08 02:08 | 45.31652 | -91.89907 | 31893 ft | 406 kts | 288° |
| 2026-05-08 02:09 | 45.33103 | -91.97667 | 31891 ft | 407 kts | 288° |
| 2026-05-08 02:09 | 45.34538 | -92.05385 | 31891 ft | 406 kts | 288° |
| 2026-05-08 02:10 | 45.35971 | -92.13153 | 31894 ft | 406 kts | 288° |
| 2026-05-08 02:10 | 45.37401 | -92.20932 | 31892 ft | 406 kts | 288° |
| 2026-05-08 02:11 | 45.38827 | -92.28711 | 31896 ft | 406 kts | 288° |
| 2026-05-08 02:11 | 45.40248 | -92.36492 | 31900 ft | 406 kts | 287° |
| 2026-05-08 02:12 | 45.41655 | -92.44269 | 31900 ft | 406 kts | 287° |
| 2026-05-08 02:12 | 45.43066 | -92.52044 | 31905 ft | 406 kts | 287° |
| 2026-05-08 02:13 | 45.44475 | -92.59813 | 31909 ft | 405 kts | 287° |
| 2026-05-08 02:13 | 45.45871 | -92.67580 | 31909 ft | 404 kts | 287° |
| 2026-05-08 02:14 | 45.47253 | -92.75340 | 31918 ft | 404 kts | 287° |
| 2026-05-08 02:14 | 45.48626 | -92.83090 | 31921 ft | 403 kts | 287° |
| 2026-05-08 02:15 | 45.49997 | -92.90834 | 31917 ft | 403 kts | 287° |
| 2026-05-08 02:15 | 45.51367 | -92.98569 | 31917 ft | 402 kts | 287° |
| 2026-05-08 02:16 | 45.52726 | -93.06295 | 31914 ft | 402 kts | 287° |
| 2026-05-08 02:16 | 45.54083 | -93.14020 | 31909 ft | 401 kts | 287° |
| 2026-05-08 02:17 | 45.55420 | -93.21743 | 31905 ft | 400 kts | 287° |
| 2026-05-08 02:17 | 45.56754 | -93.29452 | 31903 ft | 400 kts | 287° |
| 2026-05-08 02:18 | 45.58085 | -93.37154 | 31902 ft | 399 kts | 287° |
| 2026-05-08 02:18 | 45.59409 | -93.44845 | 31901 ft | 399 kts | 287° |
| 2026-05-08 02:19 | 45.60724 | -93.52528 | 31899 ft | 398 kts | 287° |
| 2026-05-08 02:19 | 45.62030 | -93.60213 | 31895 ft | 398 kts | 287° |
| 2026-05-08 02:20 | 45.63334 | -93.67892 | 31890 ft | 398 kts | 287° |
| 2026-05-08 02:20 | 45.64416 | -93.74270 | 31890 ft | 398 kts | 287° |
| 2026-05-08 02:21 | 45.65710 | -93.81952 | 31888 ft | 397 kts | 287° |
| 2026-05-08 02:21 | 45.66993 | -93.89633 | 31884 ft | 397 kts | 287° |
| 2026-05-08 02:22 | 45.68270 | -93.97316 | 31882 ft | 397 kts | 287° |
| 2026-05-08 02:22 | 45.69544 | -94.05005 | 31881 ft | 397 kts | 287° |
| 2026-05-08 02:23 | 45.70812 | -94.12698 | 31883 ft | 397 kts | 287° |
| 2026-05-08 02:23 | 45.72084 | -94.20395 | 31884 ft | 397 kts | 287° |
| 2026-05-08 02:24 | 45.73347 | -94.28092 | 31885 ft | 397 kts | 287° |
| 2026-05-08 02:24 | 45.74603 | -94.35799 | 31887 ft | 397 kts | 287° |
| 2026-05-08 02:25 | 45.75861 | -94.43506 | 31888 ft | 398 kts | 287° |
| 2026-05-08 02:25 | 45.77101 | -94.51216 | 31890 ft | 397 kts | 287° |
| 2026-05-08 02:26 | 45.78339 | -94.58938 | 31888 ft | 398 kts | 287° |
| 2026-05-08 02:26 | 45.79574 | -94.66660 | 31891 ft | 398 kts | 287° |
| 2026-05-08 02:27 | 45.80798 | -94.74343 | 31887 ft | 398 kts | 287° |
| 2026-05-08 02:27 | 45.82035 | -94.82083 | 31886 ft | 399 kts | 287° |
| 2026-05-08 02:28 | 45.83260 | -94.89841 | 31882 ft | 399 kts | 286° |
| 2026-05-08 02:28 | 45.84481 | -94.97602 | 31881 ft | 399 kts | 286° |
| 2026-05-08 02:29 | 45.85689 | -95.05378 | 31881 ft | 399 kts | 286° |
| 2026-05-08 02:29 | 45.86895 | -95.13156 | 31884 ft | 400 kts | 286° |
| 2026-05-08 02:30 | 45.88107 | -95.20947 | 31884 ft | 400 kts | 286° |
| 2026-05-08 02:30 | 45.89305 | -95.28747 | 31881 ft | 401 kts | 286° |
| 2026-05-08 02:31 | 45.90492 | -95.36555 | 31880 ft | 400 kts | 286° |
| 2026-05-08 02:31 | 45.91685 | -95.44367 | 31876 ft | 401 kts | 286° |
| 2026-05-08 02:32 | 45.92881 | -95.52186 | 31872 ft | 401 kts | 286° |
| 2026-05-08 02:32 | 45.94068 | -95.60022 | 31872 ft | 401 kts | 286° |
| 2026-05-08 02:33 | 45.95245 | -95.67863 | 31872 ft | 402 kts | 286° |
| 2026-05-08 02:33 | 45.96413 | -95.75718 | 31870 ft | 402 kts | 286° |
| 2026-05-08 02:34 | 45.97588 | -95.83590 | 31873 ft | 403 kts | 285° |
| 2026-05-08 02:34 | 45.98747 | -95.91460 | 31871 ft | 403 kts | 285° |
| 2026-05-08 02:35 | 45.99910 | -95.99344 | 31873 ft | 403 kts | 286° |
| 2026-05-08 02:35 | 46.01145 | -96.07194 | 31873 ft | 402 kts | 287° |
| 2026-05-08 02:36 | 46.02445 | -96.15024 | 31877 ft | 402 kts | 287° |
| 2026-05-08 02:36 | 46.03740 | -96.22853 | 31877 ft | 402 kts | 287° |
| 2026-05-08 02:37 | 46.05014 | -96.30691 | 31877 ft | 403 kts | 287° |
| 2026-05-08 02:37 | 46.06277 | -96.38543 | 31873 ft | 403 kts | 287° |
| 2026-05-08 02:38 | 46.07537 | -96.46415 | 31874 ft | 403 kts | 287° |
| 2026-05-08 02:38 | 46.08796 | -96.54293 | 31866 ft | 404 kts | 287° |
| 2026-05-08 02:39 | 46.10050 | -96.62191 | 31864 ft | 404 kts | 286° |
| 2026-05-08 02:39 | 46.11299 | -96.70092 | 31856 ft | 404 kts | 286° |
| 2026-05-08 02:40 | 46.12551 | -96.77998 | 31861 ft | 405 kts | 286° |
| 2026-05-08 02:40 | 46.13803 | -96.85926 | 31856 ft | 406 kts | 286° |
| 2026-05-08 02:41 | 46.15032 | -96.93828 | 31849 ft | 406 kts | 286° |
| 2026-05-08 02:41 | 46.16262 | -97.01780 | 31848 ft | 406 kts | 286° |
| 2026-05-08 02:42 | 46.17487 | -97.09747 | 31846 ft | 407 kts | 286° |
| 2026-05-08 02:42 | 46.18715 | -97.17742 | 31845 ft | 409 kts | 285° |
| 2026-05-08 02:43 | 46.19937 | -97.25760 | 31845 ft | 409 kts | 285° |
| 2026-05-08 02:43 | 46.21158 | -97.33779 | 31850 ft | 409 kts | 285° |
| 2026-05-08 02:44 | 46.22373 | -97.41817 | 31851 ft | 410 kts | 285° |
| 2026-05-08 02:44 | 46.23582 | -97.49863 | 31851 ft | 410 kts | 285° |
| 2026-05-08 02:45 | 46.24788 | -97.57909 | 31852 ft | 410 kts | 285° |
| 2026-05-08 02:45 | 46.25988 | -97.65955 | 31852 ft | 410 kts | 285° |
| 2026-05-08 02:46 | 46.27178 | -97.74006 | 31852 ft | 410 kts | 284° |
| 2026-05-08 02:46 | 46.28365 | -97.82072 | 31852 ft | 410 kts | 285° |
| 2026-05-08 02:47 | 46.29552 | -97.90148 | 31854 ft | 411 kts | 285° |
| 2026-05-08 02:47 | 46.30744 | -97.98229 | 31861 ft | 411 kts | 284° |
| 2026-05-08 02:48 | 46.31920 | -98.06324 | 31868 ft | 411 kts | 284° |
| 2026-05-08 02:48 | 46.33086 | -98.14427 | 31874 ft | 411 kts | 284° |
| 2026-05-08 02:49 | 46.34257 | -98.22529 | 31875 ft | 412 kts | 284° |
| 2026-05-08 02:49 | 46.35414 | -98.30648 | 31876 ft | 412 kts | 284° |
| 2026-05-08 02:50 | 46.36560 | -98.38786 | 31880 ft | 412 kts | 284° |
| 2026-05-08 02:50 | 46.37703 | -98.46918 | 31883 ft | 413 kts | 284° |
| 2026-05-08 02:51 | 46.38847 | -98.55064 | 31882 ft | 413 kts | 284° |
| 2026-05-08 02:51 | 46.39985 | -98.63218 | 31880 ft | 413 kts | 284° |
| 2026-05-08 02:52 | 46.41124 | -98.71374 | 31874 ft | 413 kts | 284° |
| 2026-05-08 02:52 | 46.42258 | -98.79545 | 31870 ft | 414 kts | 284° |
| 2026-05-08 02:53 | 46.43383 | -98.87724 | 31864 ft | 413 kts | 284° |
| 2026-05-08 02:53 | 46.44502 | -98.95912 | 31858 ft | 414 kts | 283° |
| 2026-05-08 02:54 | 46.45611 | -99.04121 | 31860 ft | 415 kts | 283° |
| 2026-05-08 02:54 | 46.46718 | -99.12345 | 31856 ft | 416 kts | 283° |
| 2026-05-08 02:55 | 46.48371 | -99.24712 | 31865 ft | 416 kts | 283° |
| 2026-05-08 02:56 | 46.49476 | -99.32971 | 31873 ft | 417 kts | 283° |
| 2026-05-08 02:56 | 46.50578 | -99.41236 | 31875 ft | 417 kts | 283° |
| 2026-05-08 02:57 | 46.51682 | -99.49509 | 31880 ft | 417 kts | 283° |
| 2026-05-08 02:57 | 46.52772 | -99.57788 | 31882 ft | 418 kts | 283° |
| 2026-05-08 02:58 | 46.53843 | -99.66086 | 31886 ft | 418 kts | 282° |
| 2026-05-08 02:58 | 46.54912 | -99.74377 | 31884 ft | 417 kts | 282° |
| 2026-05-08 02:59 | 46.55974 | -99.82656 | 31884 ft | 417 kts | 282° |
| 2026-05-08 02:59 | 46.57029 | -99.90953 | 31885 ft | 418 kts | 282° |
| 2026-05-08 03:00 | 46.58081 | -99.99260 | 31883 ft | 418 kts | 282° |
| 2026-05-08 03:00 | 46.59127 | -100.07566 | 31884 ft | 418 kts | 282° |
| 2026-05-08 03:01 | 46.60175 | -100.15881 | 31886 ft | 418 kts | 282° |
| 2026-05-08 03:01 | 46.61215 | -100.24207 | 31889 ft | 419 kts | 282° |
| 2026-05-08 03:02 | 46.62250 | -100.32538 | 31887 ft | 419 kts | 282° |
| 2026-05-08 03:02 | 46.63105 | -100.39477 | 31884 ft | 419 kts | 282° |
| 2026-05-08 03:03 | 46.64125 | -100.47832 | 31883 ft | 419 kts | 282° |
| 2026-05-08 03:03 | 46.65143 | -100.56199 | 31883 ft | 420 kts | 282° |
| 2026-05-08 03:04 | 46.66154 | -100.64555 | 31884 ft | 420 kts | 282° |
| 2026-05-08 03:04 | 46.67157 | -100.72930 | 31884 ft | 420 kts | 282° |
| 2026-05-08 03:05 | 46.68160 | -100.81301 | 31889 ft | 420 kts | 281° |
| 2026-05-08 03:05 | 46.69162 | -100.89676 | 31885 ft | 420 kts | 281° |
| 2026-05-08 03:06 | 46.70149 | -100.98057 | 31885 ft | 420 kts | 281° |
| 2026-05-08 03:06 | 46.71125 | -101.06455 | 31882 ft | 421 kts | 281° |
| 2026-05-08 03:07 | 46.72106 | -101.14866 | 31886 ft | 421 kts | 281° |
| 2026-05-08 03:07 | 46.73079 | -101.23285 | 31889 ft | 421 kts | 281° |
| 2026-05-08 03:08 | 46.74046 | -101.31709 | 31892 ft | 421 kts | 281° |
| 2026-05-08 03:08 | 46.75005 | -101.40137 | 31896 ft | 421 kts | 281° |
| 2026-05-08 03:09 | 46.75957 | -101.48567 | 31896 ft | 422 kts | 281° |
| 2026-05-08 03:09 | 46.76912 | -101.56997 | 31894 ft | 421 kts | 281° |
| 2026-05-08 03:10 | 46.77853 | -101.65425 | 31900 ft | 420 kts | 282° |
| 2026-05-08 03:10 | 46.78781 | -101.73825 | 31897 ft | 419 kts | 281° |
| 2026-05-08 03:11 | 46.79698 | -101.82202 | 31899 ft | 418 kts | 281° |
| 2026-05-08 03:11 | 46.80613 | -101.90582 | 31891 ft | 418 kts | 281° |
| 2026-05-08 03:12 | 46.81527 | -101.98949 | 31893 ft | 418 kts | 281° |
| 2026-05-08 03:12 | 46.82428 | -102.07323 | 31898 ft | 417 kts | 281° |
| 2026-05-08 03:13 | 46.83325 | -102.15686 | 31899 ft | 417 kts | 281° |
| 2026-05-08 03:13 | 46.84215 | -102.24047 | 31899 ft | 416 kts | 281° |
| 2026-05-08 03:14 | 46.85099 | -102.32405 | 31896 ft | 416 kts | 281° |
| 2026-05-08 03:14 | 46.85975 | -102.40771 | 31894 ft | 417 kts | 281° |
| 2026-05-08 03:15 | 46.86840 | -102.49092 | 31893 ft | 417 kts | 281° |
| 2026-05-08 03:15 | 46.87707 | -102.57524 | 31894 ft | 417 kts | 281° |
| 2026-05-08 03:16 | 46.88569 | -102.65916 | 31896 ft | 417 kts | 281° |
| 2026-05-08 03:16 | 46.89414 | -102.74244 | 31896 ft | 417 kts | 281° |
| 2026-05-08 03:17 | 46.90259 | -102.82642 | 31893 ft | 418 kts | 281° |
| 2026-05-08 03:17 | 46.91107 | -102.91042 | 31896 ft | 417 kts | 281° |
| 2026-05-08 03:18 | 46.91946 | -102.99452 | 31894 ft | 417 kts | 281° |
| 2026-05-08 03:18 | 46.92776 | -103.07849 | 31894 ft | 417 kts | 281° |
| 2026-05-08 03:19 | 46.93597 | -103.16245 | 31896 ft | 417 kts | 281° |
| 2026-05-08 03:19 | 46.94413 | -103.24656 | 31896 ft | 417 kts | 281° |
| 2026-05-08 03:20 | 46.95220 | -103.33062 | 31900 ft | 417 kts | 281° |
| 2026-05-08 03:20 | 46.96024 | -103.41482 | 31968 ft | 418 kts | 281° |
| 2026-05-08 03:20 | 46.96424 | -103.45686 | 32247 ft | 416 kts | 281° |
| 2026-05-08 03:21 | 46.96821 | -103.49875 | 32523 ft | 415 kts | 281° |
| 2026-05-08 03:21 | 46.97213 | -103.54054 | 32771 ft | 414 kts | 281° |
| 2026-05-08 03:21 | 46.97603 | -103.58224 | 33013 ft | 413 kts | 281° |
| 2026-05-08 03:21 | 46.97994 | -103.62387 | 33244 ft | 412 kts | 281° |
| 2026-05-08 03:22 | 46.98382 | -103.66540 | 33481 ft | 411 kts | 281° |
| 2026-05-08 03:22 | 46.98767 | -103.70685 | 33704 ft | 411 kts | 281° |
| 2026-05-08 03:22 | 46.99150 | -103.74828 | 33877 ft | 411 kts | 281° |
| 2026-05-08 03:23 | 46.99912 | -103.83097 | 33925 ft | 409 kts | 281° |
| 2026-05-08 03:23 | 47.00661 | -103.91349 | 33925 ft | 409 kts | 280° |
| 2026-05-08 03:24 | 47.01403 | -103.99601 | 33925 ft | 408 kts | 280° |
| 2026-05-08 03:24 | 47.02148 | -104.07858 | 33925 ft | 409 kts | 280° |
| 2026-05-08 03:25 | 47.02889 | -104.16130 | 33926 ft | 409 kts | 280° |
| 2026-05-08 03:25 | 47.03619 | -104.24421 | 33930 ft | 410 kts | 280° |
| 2026-05-08 03:26 | 47.04347 | -104.32714 | 33927 ft | 410 kts | 280° |
| 2026-05-08 03:26 | 47.05065 | -104.41017 | 33929 ft | 411 kts | 280° |
| 2026-05-08 03:27 | 47.05781 | -104.49332 | 33925 ft | 411 kts | 280° |
| 2026-05-08 03:27 | 47.06487 | -104.57655 | 33922 ft | 411 kts | 280° |
| 2026-05-08 03:28 | 47.07186 | -104.65980 | 33921 ft | 411 kts | 280° |
| 2026-05-08 03:28 | 47.07877 | -104.74251 | 33919 ft | 411 kts | 280° |
| 2026-05-08 03:29 | 47.08575 | -104.82570 | 33918 ft | 411 kts | 280° |
| 2026-05-08 03:29 | 47.09263 | -104.90907 | 33916 ft | 411 kts | 280° |
| 2026-05-08 03:30 | 47.10276 | -105.03420 | 33916 ft | 412 kts | 279° |
| 2026-05-08 03:31 | 47.11607 | -105.20144 | 33920 ft | 412 kts | 279° |
| 2026-05-08 03:32 | 47.12593 | -105.32693 | 33917 ft | 413 kts | 279° |
| 2026-05-08 03:32 | 47.13247 | -105.41070 | 33912 ft | 413 kts | 279° |
| 2026-05-08 03:33 | 47.13893 | -105.49450 | 33910 ft | 413 kts | 279° |
| 2026-05-08 03:33 | 47.14539 | -105.57831 | 33909 ft | 413 kts | 279° |
| 2026-05-08 03:34 | 47.15167 | -105.66216 | 33910 ft | 413 kts | 279° |
| 2026-05-08 03:34 | 47.15789 | -105.74613 | 33915 ft | 414 kts | 279° |
| 2026-05-08 03:35 | 47.16408 | -105.83017 | 33917 ft | 413 kts | 279° |
| 2026-05-08 03:35 | 47.17024 | -105.91416 | 33919 ft | 413 kts | 279° |
| 2026-05-08 03:36 | 47.17646 | -105.99934 | 33923 ft | 413 kts | 279° |
| 2026-05-08 03:36 | 47.18251 | -106.08335 | 33922 ft | 414 kts | 279° |
| 2026-05-08 03:37 | 47.18845 | -106.16762 | 33921 ft | 414 kts | 279° |
| 2026-05-08 03:37 | 47.19438 | -106.25192 | 33922 ft | 415 kts | 279° |
| 2026-05-08 03:38 | 47.20021 | -106.33625 | 33926 ft | 415 kts | 279° |
| 2026-05-08 03:38 | 47.20601 | -106.42069 | 33932 ft | 415 kts | 279° |
| 2026-05-08 03:39 | 47.21176 | -106.50524 | 33932 ft | 415 kts | 279° |
| 2026-05-08 03:39 | 47.21746 | -106.58978 | 33931 ft | 416 kts | 279° |
| 2026-05-08 03:40 | 47.22309 | -106.67451 | 33933 ft | 416 kts | 279° |
| 2026-05-08 03:40 | 47.22775 | -106.74550 | 33936 ft | 416 kts | 279° |
| 2026-05-08 03:41 | 47.23325 | -106.83037 | 33937 ft | 417 kts | 279° |
| 2026-05-08 03:41 | 47.23870 | -106.91473 | 33937 ft | 417 kts | 279° |
| 2026-05-08 03:42 | 47.24413 | -107.00023 | 33948 ft | 417 kts | 279° |
| 2026-05-08 03:42 | 47.24946 | -107.08534 | 33939 ft | 418 kts | 279° |
| 2026-05-08 03:43 | 47.25470 | -107.17002 | 33939 ft | 417 kts | 279° |
| 2026-05-08 03:43 | 47.25995 | -107.25509 | 33934 ft | 417 kts | 279° |
| 2026-05-08 03:44 | 47.26511 | -107.34016 | 33935 ft | 417 kts | 279° |
| 2026-05-08 03:44 | 47.27017 | -107.42529 | 33938 ft | 417 kts | 278° |
| 2026-05-08 03:45 | 47.27515 | -107.51051 | 33937 ft | 418 kts | 278° |
| 2026-05-08 03:45 | 47.28016 | -107.59579 | 33936 ft | 418 kts | 278° |
| 2026-05-08 03:46 | 47.28511 | -107.68102 | 33936 ft | 418 kts | 278° |
| 2026-05-08 03:46 | 47.28995 | -107.76627 | 33933 ft | 418 kts | 278° |
| 2026-05-08 03:47 | 47.29475 | -107.85160 | 33935 ft | 418 kts | 278° |
| 2026-05-08 03:47 | 47.29713 | -107.89434 | 34134 ft | 418 kts | 278° |
| 2026-05-08 03:47 | 47.29950 | -107.93763 | 34395 ft | 418 kts | 278° |
| 2026-05-08 03:47 | 47.30179 | -107.97967 | 34619 ft | 418 kts | 278° |
| 2026-05-08 03:48 | 47.30412 | -108.02232 | 34832 ft | 418 kts | 278° |
| 2026-05-08 03:48 | 47.30642 | -108.06503 | 35037 ft | 418 kts | 279° |
| 2026-05-08 03:48 | 47.30871 | -108.10780 | 35236 ft | 419 kts | 279° |
| 2026-05-08 03:48 | 47.31099 | -108.15059 | 35428 ft | 419 kts | 279° |
| 2026-05-08 03:49 | 47.31325 | -108.19337 | 35636 ft | 419 kts | 279° |
| 2026-05-08 03:49 | 47.31549 | -108.23619 | 35842 ft | 419 kts | 279° |
| 2026-05-08 03:49 | 47.31772 | -108.27911 | 35937 ft | 420 kts | 279° |
| 2026-05-08 03:50 | 47.32224 | -108.36551 | 35961 ft | 420 kts | 279° |
| 2026-05-08 03:50 | 47.32659 | -108.45129 | 35963 ft | 420 kts | 279° |
| 2026-05-08 03:51 | 47.33083 | -108.53665 | 35961 ft | 420 kts | 279° |
| 2026-05-08 03:51 | 47.33506 | -108.62238 | 35971 ft | 420 kts | 279° |
| 2026-05-08 03:52 | 47.33923 | -108.70839 | 35977 ft | 420 kts | 279° |
| 2026-05-08 03:52 | 47.34274 | -108.78202 | 35980 ft | 421 kts | 278° |